sensor_id;sensor_type;location;lat;lon;timestamp;P1;durP1;ratioP1;P2;durP2;ratioP2
69985;SDS011;57328;52.054;5.294;2023-04-24T00:01:35;2.22;;;1.20;;
69985;SDS011;57328;52.054;5.294;2023-04-24T00:04:03;2.50;;;1.10;;
69985;SDS011;57328;52.054;5.294;2023-04-24T00:06:30;3.08;;;1.63;;
69985;SDS011;57328;52.054;5.294;2023-04-24T00:09:01;2.72;;;1.73;;
69985;SDS011;57328;52.054;5.294;2023-04-24T00:11:29;5.38;;;1.77;;
69985;SDS011;57328;52.054;5.294;2023-04-24T00:13:56;3.65;;;1.80;;
69985;SDS011;57328;52.054;5.294;2023-04-24T00:16:24;3.13;;;1.80;;
69985;SDS011;57328;52.054;5.294;2023-04-24T00:18:51;5.20;;;2.13;;
69985;SDS011;57328;52.054;5.294;2023-04-24T00:21:18;3.35;;;1.92;;
69985;SDS011;57328;52.054;5.294;2023-04-24T00:23:46;3.17;;;1.90;;
69985;SDS011;57328;52.054;5.294;2023-04-24T00:26:14;5.95;;;2.60;;
69985;SDS011;57328;52.054;5.294;2023-04-24T00:28:41;4.97;;;1.92;;
69985;SDS011;57328;52.054;5.294;2023-04-24T00:31:08;3.35;;;1.60;;
69985;SDS011;57328;52.054;5.294;2023-04-24T00:33:35;5.55;;;2.17;;
69985;SDS011;57328;52.054;5.294;2023-04-24T00:36:03;6.05;;;2.08;;
69985;SDS011;57328;52.054;5.294;2023-04-24T00:38:30;3.33;;;2.05;;
69985;SDS011;57328;52.054;5.294;2023-04-24T00:40:57;3.78;;;1.60;;
69985;SDS011;57328;52.054;5.294;2023-04-24T00:43:24;4.68;;;1.83;;
69985;SDS011;57328;52.054;5.294;2023-04-24T00:45:51;4.07;;;2.10;;
69985;SDS011;57328;52.054;5.294;2023-04-24T00:48:19;4.90;;;2.15;;
69985;SDS011;57328;52.054;5.294;2023-04-24T00:50:46;5.82;;;2.80;;
69985;SDS011;57328;52.054;5.294;2023-04-24T00:53:14;8.68;;;2.83;;
69985;SDS011;57328;52.054;5.294;2023-04-24T00:55:41;6.65;;;3.22;;
69985;SDS011;57328;52.054;5.294;2023-04-24T00:58:08;5.32;;;2.88;;
69985;SDS011;57328;52.054;5.294;2023-04-24T01:00:36;5.95;;;3.00;;
69985;SDS011;57328;52.054;5.294;2023-04-24T01:03:03;7.07;;;2.97;;
69985;SDS011;57328;52.054;5.294;2023-04-24T01:05:32;7.93;;;3.25;;
69985;SDS011;57328;52.054;5.294;2023-04-24T01:08:00;6.75;;;3.10;;
69985;SDS011;57328;52.054;5.294;2023-04-24T01:10:28;5.95;;;3.08;;
69985;SDS011;57328;52.054;5.294;2023-04-24T01:12:56;7.70;;;3.08;;
69985;SDS011;57328;52.054;5.294;2023-04-24T01:15:23;6.80;;;3.42;;
69985;SDS011;57328;52.054;5.294;2023-04-24T01:17:50;9.30;;;2.75;;
69985;SDS011;57328;52.054;5.294;2023-04-24T01:20:18;9.77;;;3.83;;
69985;SDS011;57328;52.054;5.294;2023-04-24T01:22:47;7.47;;;3.40;;
69985;SDS011;57328;52.054;5.294;2023-04-24T01:25:14;10.25;;;3.33;;
69985;SDS011;57328;52.054;5.294;2023-04-24T01:27:41;7.30;;;3.13;;
69985;SDS011;57328;52.054;5.294;2023-04-24T01:30:09;6.00;;;3.15;;
69985;SDS011;57328;52.054;5.294;2023-04-24T01:32:36;5.95;;;2.80;;
69985;SDS011;57328;52.054;5.294;2023-04-24T01:35:04;6.38;;;3.10;;
69985;SDS011;57328;52.054;5.294;2023-04-24T01:37:32;7.32;;;3.40;;
69985;SDS011;57328;52.054;5.294;2023-04-24T01:39:59;6.82;;;3.20;;
69985;SDS011;57328;52.054;5.294;2023-04-24T01:42:26;8.38;;;3.47;;
69985;SDS011;57328;52.054;5.294;2023-04-24T01:44:53;7.88;;;2.97;;
69985;SDS011;57328;52.054;5.294;2023-04-24T01:47:21;6.05;;;2.97;;
69985;SDS011;57328;52.054;5.294;2023-04-24T01:49:48;7.50;;;3.15;;
69985;SDS011;57328;52.054;5.294;2023-04-24T01:52:16;5.30;;;2.95;;
69985;SDS011;57328;52.054;5.294;2023-04-24T01:54:44;6.97;;;3.28;;
69985;SDS011;57328;52.054;5.294;2023-04-24T01:57:12;6.40;;;2.92;;
69985;SDS011;57328;52.054;5.294;2023-04-24T01:59:40;7.53;;;3.00;;
69985;SDS011;57328;52.054;5.294;2023-04-24T02:02:08;5.35;;;2.67;;
69985;SDS011;57328;52.054;5.294;2023-04-24T02:07:40;6.22;;;2.90;;
69985;SDS011;57328;52.054;5.294;2023-04-24T02:13:29;8.05;;;3.47;;
69985;SDS011;57328;52.054;5.294;2023-04-24T02:15:57;8.95;;;3.40;;
69985;SDS011;57328;52.054;5.294;2023-04-24T02:18:25;7.25;;;3.42;;
69985;SDS011;57328;52.054;5.294;2023-04-24T02:20:52;7.22;;;3.67;;
69985;SDS011;57328;52.054;5.294;2023-04-24T02:23:19;8.73;;;3.65;;
69985;SDS011;57328;52.054;5.294;2023-04-24T02:25:47;8.23;;;3.20;;
69985;SDS011;57328;52.054;5.294;2023-04-24T02:28:14;7.72;;;3.65;;
69985;SDS011;57328;52.054;5.294;2023-04-24T02:30:42;7.28;;;3.47;;
69985;SDS011;57328;52.054;5.294;2023-04-24T02:33:09;7.07;;;3.55;;
69985;SDS011;57328;52.054;5.294;2023-04-24T02:35:37;8.70;;;3.88;;
69985;SDS011;57328;52.054;5.294;2023-04-24T02:38:05;8.20;;;3.13;;
69985;SDS011;57328;52.054;5.294;2023-04-24T02:40:32;6.43;;;3.13;;
69985;SDS011;57328;52.054;5.294;2023-04-24T02:42:59;7.53;;;3.85;;
69985;SDS011;57328;52.054;5.294;2023-04-24T02:45:26;6.22;;;3.20;;
69985;SDS011;57328;52.054;5.294;2023-04-24T02:47:53;7.50;;;3.40;;
69985;SDS011;57328;52.054;5.294;2023-04-24T02:50:21;7.47;;;3.38;;
69985;SDS011;57328;52.054;5.294;2023-04-24T02:52:48;7.22;;;3.50;;
69985;SDS011;57328;52.054;5.294;2023-04-24T02:55:15;10.02;;;4.35;;
69985;SDS011;57328;52.054;5.294;2023-04-24T02:57:42;9.85;;;4.00;;
69985;SDS011;57328;52.054;5.294;2023-04-24T03:00:10;8.82;;;3.88;;
69985;SDS011;57328;52.054;5.294;2023-04-24T03:02:37;8.73;;;4.13;;
69985;SDS011;57328;52.054;5.294;2023-04-24T03:05:05;8.80;;;4.30;;
69985;SDS011;57328;52.054;5.294;2023-04-24T03:07:33;8.07;;;4.07;;
69985;SDS011;57328;52.054;5.294;2023-04-24T03:10:00;8.48;;;4.07;;
69985;SDS011;57328;52.054;5.294;2023-04-24T03:12:28;9.35;;;4.20;;
69985;SDS011;57328;52.054;5.294;2023-04-24T03:14:55;10.98;;;4.80;;
69985;SDS011;57328;52.054;5.294;2023-04-24T03:17:22;8.90;;;4.45;;
69985;SDS011;57328;52.054;5.294;2023-04-24T03:19:50;9.38;;;4.40;;
69985;SDS011;57328;52.054;5.294;2023-04-24T03:22:17;10.02;;;4.43;;
69985;SDS011;57328;52.054;5.294;2023-04-24T03:24:44;10.45;;;4.80;;
69985;SDS011;57328;52.054;5.294;2023-04-24T03:27:11;8.90;;;4.07;;
69985;SDS011;57328;52.054;5.294;2023-04-24T03:29:38;9.70;;;4.63;;
69985;SDS011;57328;52.054;5.294;2023-04-24T03:32:06;7.43;;;3.55;;
69985;SDS011;57328;52.054;5.294;2023-04-24T03:34:33;5.68;;;2.53;;
69985;SDS011;57328;52.054;5.294;2023-04-24T03:37:01;8.02;;;2.83;;
69985;SDS011;57328;52.054;5.294;2023-04-24T03:39:28;7.28;;;2.92;;
69985;SDS011;57328;52.054;5.294;2023-04-24T03:41:55;5.85;;;2.58;;
69985;SDS011;57328;52.054;5.294;2023-04-24T03:44:22;5.47;;;2.35;;
69985;SDS011;57328;52.054;5.294;2023-04-24T03:46:49;5.97;;;2.15;;
69985;SDS011;57328;52.054;5.294;2023-04-24T03:49:17;5.68;;;2.40;;
69985;SDS011;57328;52.054;5.294;2023-04-24T03:51:44;5.85;;;2.50;;
69985;SDS011;57328;52.054;5.294;2023-04-24T03:54:11;5.40;;;2.58;;
69985;SDS011;57328;52.054;5.294;2023-04-24T03:56:39;6.13;;;2.42;;
69985;SDS011;57328;52.054;5.294;2023-04-24T03:59:07;5.00;;;2.05;;
69985;SDS011;57328;52.054;5.294;2023-04-24T04:01:34;6.05;;;2.72;;
69985;SDS011;57328;52.054;5.294;2023-04-24T04:04:03;9.60;;;2.97;;
69985;SDS011;57328;52.054;5.294;2023-04-24T04:06:31;6.55;;;3.05;;
69985;SDS011;57328;52.054;5.294;2023-04-24T04:08:58;8.55;;;3.33;;
69985;SDS011;57328;52.054;5.294;2023-04-24T04:11:26;7.20;;;3.05;;
69985;SDS011;57328;52.054;5.294;2023-04-24T04:13:53;7.00;;;3.20;;
69985;SDS011;57328;52.054;5.294;2023-04-24T04:16:20;7.00;;;3.20;;
69985;SDS011;57328;52.054;5.294;2023-04-24T04:18:48;5.78;;;2.50;;
69985;SDS011;57328;52.054;5.294;2023-04-24T04:21:15;8.90;;;3.30;;
69985;SDS011;57328;52.054;5.294;2023-04-24T04:23:42;7.43;;;3.03;;
69985;SDS011;57328;52.054;5.294;2023-04-24T04:26:10;6.43;;;2.72;;
69985;SDS011;57328;52.054;5.294;2023-04-24T04:31:05;7.32;;;3.10;;
69985;SDS011;57328;52.054;5.294;2023-04-24T04:33:34;10.70;;;3.10;;
69985;SDS011;57328;52.054;5.294;2023-04-24T04:36:02;8.20;;;3.25;;
69985;SDS011;57328;52.054;5.294;2023-04-24T04:38:30;6.22;;;2.83;;
69985;SDS011;57328;52.054;5.294;2023-04-24T04:40:57;6.68;;;2.67;;
69985;SDS011;57328;52.054;5.294;2023-04-24T04:43:24;4.95;;;2.45;;
69985;SDS011;57328;52.054;5.294;2023-04-24T04:45:52;6.70;;;2.75;;
69985;SDS011;57328;52.054;5.294;2023-04-24T04:48:20;5.18;;;2.25;;
69985;SDS011;57328;52.054;5.294;2023-04-24T04:50:48;4.90;;;2.20;;
69985;SDS011;57328;52.054;5.294;2023-04-24T04:53:15;4.45;;;2.03;;
69985;SDS011;57328;52.054;5.294;2023-04-24T04:55:42;5.13;;;2.17;;
69985;SDS011;57328;52.054;5.294;2023-04-24T04:58:10;7.22;;;2.28;;
69985;SDS011;57328;52.054;5.294;2023-04-24T05:00:38;6.50;;;1.92;;
69985;SDS011;57328;52.054;5.294;2023-04-24T05:03:05;7.22;;;2.80;;
69985;SDS011;57328;52.054;5.294;2023-04-24T05:05:46;4.95;;;1.90;;
69985;SDS011;57328;52.054;5.294;2023-04-24T05:08:13;4.93;;;2.03;;
69985;SDS011;57328;52.054;5.294;2023-04-24T05:10:52;7.05;;;2.40;;
69985;SDS011;57328;52.054;5.294;2023-04-24T05:13:19;4.70;;;2.03;;
69985;SDS011;57328;52.054;5.294;2023-04-24T05:16:04;6.28;;;2.40;;
69985;SDS011;57328;52.054;5.294;2023-04-24T05:18:32;5.40;;;2.00;;
69985;SDS011;57328;52.054;5.294;2023-04-24T05:20:59;6.22;;;2.45;;
69985;SDS011;57328;52.054;5.294;2023-04-24T05:23:27;6.45;;;3.05;;
69985;SDS011;57328;52.054;5.294;2023-04-24T05:25:54;7.97;;;3.38;;
69985;SDS011;57328;52.054;5.294;2023-04-24T05:28:22;10.15;;;4.10;;
69985;SDS011;57328;52.054;5.294;2023-04-24T05:30:49;7.50;;;3.65;;
69985;SDS011;57328;52.054;5.294;2023-04-24T05:33:16;7.68;;;3.30;;
69985;SDS011;57328;52.054;5.294;2023-04-24T05:35:43;8.23;;;3.40;;
69985;SDS011;57328;52.054;5.294;2023-04-24T05:38:13;8.10;;;3.30;;
69985;SDS011;57328;52.054;5.294;2023-04-24T05:40:43;10.98;;;4.22;;
69985;SDS011;57328;52.054;5.294;2023-04-24T05:43:11;7.65;;;3.25;;
69985;SDS011;57328;52.054;5.294;2023-04-24T05:45:38;8.43;;;3.63;;
69985;SDS011;57328;52.054;5.294;2023-04-24T05:48:05;9.13;;;3.83;;
69985;SDS011;57328;52.054;5.294;2023-04-24T05:50:33;10.20;;;4.70;;
69985;SDS011;57328;52.054;5.294;2023-04-24T05:53:02;7.18;;;2.45;;
69985;SDS011;57328;52.054;5.294;2023-04-24T05:55:30;7.88;;;3.60;;
69985;SDS011;57328;52.054;5.294;2023-04-24T05:57:58;5.72;;;1.65;;
69985;SDS011;57328;52.054;5.294;2023-04-24T06:00:25;3.70;;;1.25;;
69985;SDS011;57328;52.054;5.294;2023-04-24T06:02:53;4.28;;;1.20;;
69985;SDS011;57328;52.054;5.294;2023-04-24T06:05:21;2.50;;;1.00;;
69985;SDS011;57328;52.054;5.294;2023-04-24T06:07:48;1.65;;;0.90;;
69985;SDS011;57328;52.054;5.294;2023-04-24T06:10:15;1.95;;;0.88;;
69985;SDS011;57328;52.054;5.294;2023-04-24T06:12:42;2.58;;;0.85;;
69985;SDS011;57328;52.054;5.294;2023-04-24T06:15:10;2.60;;;1.17;;
69985;SDS011;57328;52.054;5.294;2023-04-24T06:17:37;1.90;;;0.90;;
69985;SDS011;57328;52.054;5.294;2023-04-24T06:20:05;3.45;;;0.90;;
69985;SDS011;57328;52.054;5.294;2023-04-24T06:22:34;2.33;;;1.10;;
69985;SDS011;57328;52.054;5.294;2023-04-24T06:25:01;2.92;;;1.08;;
69985;SDS011;57328;52.054;5.294;2023-04-24T06:27:28;2.60;;;1.17;;
69985;SDS011;57328;52.054;5.294;2023-04-24T06:29:56;3.47;;;1.45;;
69985;SDS011;57328;52.054;5.294;2023-04-24T06:32:23;5.82;;;1.73;;
69985;SDS011;57328;52.054;5.294;2023-04-24T06:34:51;7.25;;;2.88;;
69985;SDS011;57328;52.054;5.294;2023-04-24T06:37:19;4.15;;;1.90;;
69985;SDS011;57328;52.054;5.294;2023-04-24T06:39:47;7.13;;;2.83;;
69985;SDS011;57328;52.054;5.294;2023-04-24T06:42:14;7.25;;;2.45;;
69985;SDS011;57328;52.054;5.294;2023-04-24T06:44:41;6.18;;;2.28;;
69985;SDS011;57328;52.054;5.294;2023-04-24T06:47:09;10.10;;;3.92;;
69985;SDS011;57328;52.054;5.294;2023-04-24T06:49:39;13.80;;;4.70;;
69985;SDS011;57328;52.054;5.294;2023-04-24T06:52:06;12.23;;;5.13;;
69985;SDS011;57328;52.054;5.294;2023-04-24T06:54:34;11.20;;;4.03;;
69985;SDS011;57328;52.054;5.294;2023-04-24T06:57:01;11.82;;;4.95;;
69985;SDS011;57328;52.054;5.294;2023-04-24T06:59:28;13.52;;;6.07;;
69985;SDS011;57328;52.054;5.294;2023-04-24T07:01:56;11.30;;;5.22;;
69985;SDS011;57328;52.054;5.294;2023-04-24T07:04:24;11.55;;;4.95;;
69985;SDS011;57328;52.054;5.294;2023-04-24T07:06:52;12.77;;;5.47;;
69985;SDS011;57328;52.054;5.294;2023-04-24T07:09:23;13.40;;;5.10;;
69985;SDS011;57328;52.054;5.294;2023-04-24T07:11:51;15.65;;;5.25;;
69985;SDS011;57328;52.054;5.294;2023-04-24T07:14:19;13.43;;;5.32;;
69985;SDS011;57328;52.054;5.294;2023-04-24T07:16:47;13.43;;;5.70;;
69985;SDS011;57328;52.054;5.294;2023-04-24T07:19:14;18.00;;;5.90;;
69985;SDS011;57328;52.054;5.294;2023-04-24T07:21:42;14.52;;;6.47;;
69985;SDS011;57328;52.054;5.294;2023-04-24T07:24:09;17.30;;;7.30;;
69985;SDS011;57328;52.054;5.294;2023-04-24T07:26:38;14.57;;;5.70;;
69985;SDS011;57328;52.054;5.294;2023-04-24T07:29:06;18.52;;;6.78;;
69985;SDS011;57328;52.054;5.294;2023-04-24T07:31:34;16.13;;;6.10;;
69985;SDS011;57328;52.054;5.294;2023-04-24T07:34:01;19.73;;;7.20;;
69985;SDS011;57328;52.054;5.294;2023-04-24T07:36:29;17.77;;;6.88;;
69985;SDS011;57328;52.054;5.294;2023-04-24T07:38:56;16.58;;;6.93;;
69985;SDS011;57328;52.054;5.294;2023-04-24T07:41:23;16.20;;;6.35;;
69985;SDS011;57328;52.054;5.294;2023-04-24T07:43:51;20.65;;;7.50;;
69985;SDS011;57328;52.054;5.294;2023-04-24T07:46:20;17.23;;;6.45;;
69985;SDS011;57328;52.054;5.294;2023-04-24T07:48:47;17.27;;;5.95;;
69985;SDS011;57328;52.054;5.294;2023-04-24T07:51:30;15.95;;;6.57;;
69985;SDS011;57328;52.054;5.294;2023-04-24T07:53:59;15.13;;;5.45;;
69985;SDS011;57328;52.054;5.294;2023-04-24T07:59:32;15.00;;;5.07;;
69985;SDS011;57328;52.054;5.294;2023-04-24T08:01:59;13.02;;;4.82;;
69985;SDS011;57328;52.054;5.294;2023-04-24T08:04:28;16.00;;;4.10;;
69985;SDS011;57328;52.054;5.294;2023-04-24T08:06:55;12.02;;;3.60;;
69985;SDS011;57328;52.054;5.294;2023-04-24T08:12:31;16.98;;;3.78;;
69985;SDS011;57328;52.054;5.294;2023-04-24T08:14:58;18.58;;;4.50;;
69985;SDS011;57328;52.054;5.294;2023-04-24T08:17:26;19.35;;;4.13;;
69985;SDS011;57328;52.054;5.294;2023-04-24T08:19:53;12.45;;;2.47;;
69985;SDS011;57328;52.054;5.294;2023-04-24T08:22:28;12.30;;;3.22;;
69985;SDS011;57328;52.054;5.294;2023-04-24T08:24:55;12.13;;;3.15;;
69985;SDS011;57328;52.054;5.294;2023-04-24T08:27:23;13.18;;;3.10;;
69985;SDS011;57328;52.054;5.294;2023-04-24T08:29:50;17.70;;;3.20;;
69985;SDS011;57328;52.054;5.294;2023-04-24T08:32:18;7.15;;;2.17;;
69985;SDS011;57328;52.054;5.294;2023-04-24T08:34:45;12.15;;;2.22;;
69985;SDS011;57328;52.054;5.294;2023-04-24T08:37:15;11.65;;;2.22;;
69985;SDS011;57328;52.054;5.294;2023-04-24T08:39:42;8.57;;;1.67;;
69985;SDS011;57328;52.054;5.294;2023-04-24T08:42:09;10.48;;;2.15;;
69985;SDS011;57328;52.054;5.294;2023-04-24T08:48:00;7.72;;;1.77;;
69985;SDS011;57328;52.054;5.294;2023-04-24T08:50:29;14.23;;;1.75;;
69985;SDS011;57328;52.054;5.294;2023-04-24T08:52:56;8.30;;;1.45;;
69985;SDS011;57328;52.054;5.294;2023-04-24T08:55:24;9.00;;;1.48;;
69985;SDS011;57328;52.054;5.294;2023-04-24T08:57:52;9.05;;;1.73;;
69985;SDS011;57328;52.054;5.294;2023-04-24T09:00:20;8.60;;;2.15;;
69985;SDS011;57328;52.054;5.294;2023-04-24T09:02:49;9.80;;;1.55;;
69985;SDS011;57328;52.054;5.294;2023-04-24T09:05:17;10.35;;;1.75;;
69985;SDS011;57328;52.054;5.294;2023-04-24T09:07:53;11.57;;;2.58;;
69985;SDS011;57328;52.054;5.294;2023-04-24T09:10:21;11.77;;;2.08;;
69985;SDS011;57328;52.054;5.294;2023-04-24T09:12:50;8.40;;;1.67;;
69985;SDS011;57328;52.054;5.294;2023-04-24T09:15:20;9.00;;;1.80;;
69985;SDS011;57328;52.054;5.294;2023-04-24T09:17:47;16.02;;;2.17;;
69985;SDS011;57328;52.054;5.294;2023-04-24T09:20:14;10.13;;;1.90;;
69985;SDS011;57328;52.054;5.294;2023-04-24T09:22:42;6.82;;;1.65;;
69985;SDS011;57328;52.054;5.294;2023-04-24T09:25:09;9.32;;;1.90;;
69985;SDS011;57328;52.054;5.294;2023-04-24T09:27:42;6.85;;;1.60;;
69985;SDS011;57328;52.054;5.294;2023-04-24T09:30:10;5.43;;;1.42;;
69985;SDS011;57328;52.054;5.294;2023-04-24T09:32:37;8.43;;;1.63;;
69985;SDS011;57328;52.054;5.294;2023-04-24T09:35:09;7.32;;;1.80;;
69985;SDS011;57328;52.054;5.294;2023-04-24T09:37:43;7.57;;;1.63;;
69985;SDS011;57328;52.054;5.294;2023-04-24T09:40:15;7.78;;;1.45;;
69985;SDS011;57328;52.054;5.294;2023-04-24T09:42:43;8.00;;;1.50;;
69985;SDS011;57328;52.054;5.294;2023-04-24T09:45:11;4.82;;;1.75;;
69985;SDS011;57328;52.054;5.294;2023-04-24T09:47:40;7.55;;;1.40;;
69985;SDS011;57328;52.054;5.294;2023-04-24T09:50:15;9.40;;;1.75;;
69985;SDS011;57328;52.054;5.294;2023-04-24T09:52:44;11.38;;;1.95;;
69985;SDS011;57328;52.054;5.294;2023-04-24T09:55:19;9.25;;;1.58;;
69985;SDS011;57328;52.054;5.294;2023-04-24T09:57:50;5.88;;;1.40;;
69985;SDS011;57328;52.054;5.294;2023-04-24T10:00:18;7.85;;;1.33;;
69985;SDS011;57328;52.054;5.294;2023-04-24T10:10:08;4.03;;;1.13;;
69985;SDS011;57328;52.054;5.294;2023-04-24T10:12:36;6.07;;;1.23;;
69985;SDS011;57328;52.054;5.294;2023-04-24T10:15:03;7.63;;;1.63;;
69985;SDS011;57328;52.054;5.294;2023-04-24T10:17:31;5.13;;;1.02;;
69985;SDS011;57328;52.054;5.294;2023-04-24T10:19:59;6.60;;;1.10;;
69985;SDS011;57328;52.054;5.294;2023-04-24T10:22:28;8.52;;;1.67;;
69985;SDS011;57328;52.054;5.294;2023-04-24T10:24:56;4.68;;;0.70;;
69985;SDS011;57328;52.054;5.294;2023-04-24T10:27:23;4.38;;;0.90;;
69985;SDS011;57328;52.054;5.294;2023-04-24T10:29:52;8.40;;;1.27;;
69985;SDS011;57328;52.054;5.294;2023-04-24T10:32:20;5.65;;;0.98;;
69985;SDS011;57328;52.054;5.294;2023-04-24T10:34:47;2.92;;;1.00;;
69985;SDS011;57328;52.054;5.294;2023-04-24T10:37:14;3.03;;;0.82;;
69985;SDS011;57328;52.054;5.294;2023-04-24T10:39:42;5.53;;;0.82;;
69985;SDS011;57328;52.054;5.294;2023-04-24T10:42:13;2.83;;;0.73;;
69985;SDS011;57328;52.054;5.294;2023-04-24T10:44:41;1.40;;;0.50;;
69985;SDS011;57328;52.054;5.294;2023-04-24T10:47:12;8.63;;;1.40;;
69985;SDS011;57328;52.054;5.294;2023-04-24T10:49:40;5.75;;;1.33;;
69985;SDS011;57328;52.054;5.294;2023-04-24T10:52:08;3.80;;;1.00;;
69985;SDS011;57328;52.054;5.294;2023-04-24T10:59:51;6.78;;;1.10;;
69985;SDS011;57328;52.054;5.294;2023-04-24T11:07:29;5.22;;;0.50;;
69985;SDS011;57328;52.054;5.294;2023-04-24T11:10:00;2.30;;;0.47;;
69985;SDS011;57328;52.054;5.294;2023-04-24T11:12:27;6.53;;;1.10;;
69985;SDS011;57328;52.054;5.294;2023-04-24T11:17:35;5.15;;;0.75;;
69985;SDS011;57328;52.054;5.294;2023-04-24T11:20:07;4.05;;;0.90;;
69985;SDS011;57328;52.054;5.294;2023-04-24T11:22:53;2.75;;;0.82;;
69985;SDS011;57328;52.054;5.294;2023-04-24T11:25:22;4.43;;;0.80;;
69985;SDS011;57328;52.054;5.294;2023-04-24T11:27:49;4.38;;;0.90;;
69985;SDS011;57328;52.054;5.294;2023-04-24T11:30:17;5.15;;;0.80;;
69985;SDS011;57328;52.054;5.294;2023-04-24T11:32:47;5.57;;;1.10;;
69985;SDS011;57328;52.054;5.294;2023-04-24T11:35:16;7.97;;;1.00;;
69985;SDS011;57328;52.054;5.294;2023-04-24T11:37:47;5.55;;;0.95;;
69985;SDS011;57328;52.054;5.294;2023-04-24T11:40:35;4.70;;;0.90;;
69985;SDS011;57328;52.054;5.294;2023-04-24T11:43:05;1.98;;;0.70;;
69985;SDS011;57328;52.054;5.294;2023-04-24T11:45:33;2.92;;;0.90;;
69985;SDS011;57328;52.054;5.294;2023-04-24T11:48:02;3.08;;;0.70;;
69985;SDS011;57328;52.054;5.294;2023-04-24T11:50:30;2.72;;;0.63;;
69985;SDS011;57328;52.054;5.294;2023-04-24T11:52:57;1.45;;;0.52;;
69985;SDS011;57328;52.054;5.294;2023-04-24T11:55:26;2.15;;;0.55;;
69985;SDS011;57328;52.054;5.294;2023-04-24T11:57:58;2.42;;;0.68;;
69985;SDS011;57328;52.054;5.294;2023-04-24T12:00:26;2.25;;;0.60;;
69985;SDS011;57328;52.054;5.294;2023-04-24T12:03:10;3.30;;;0.60;;
69985;SDS011;57328;52.054;5.294;2023-04-24T12:05:38;2.72;;;0.68;;
69985;SDS011;57328;52.054;5.294;2023-04-24T12:08:06;6.68;;;0.65;;
69985;SDS011;57328;52.054;5.294;2023-04-24T12:10:34;3.13;;;0.70;;
69985;SDS011;57328;52.054;5.294;2023-04-24T12:13:01;3.03;;;0.80;;
69985;SDS011;57328;52.054;5.294;2023-04-24T12:15:29;1.98;;;0.60;;
69985;SDS011;57328;52.054;5.294;2023-04-24T12:17:56;5.50;;;0.80;;
69985;SDS011;57328;52.054;5.294;2023-04-24T12:20:27;3.50;;;0.77;;
69985;SDS011;57328;52.054;5.294;2023-04-24T12:22:56;3.92;;;0.70;;
69985;SDS011;57328;52.054;5.294;2023-04-24T12:25:24;3.55;;;0.57;;
69985;SDS011;57328;52.054;5.294;2023-04-24T12:30:25;3.80;;;0.80;;
69985;SDS011;57328;52.054;5.294;2023-04-24T12:33:07;6.55;;;0.77;;
69985;SDS011;57328;52.054;5.294;2023-04-24T12:35:35;5.13;;;0.73;;
69985;SDS011;57328;52.054;5.294;2023-04-24T12:38:12;5.15;;;0.75;;
69985;SDS011;57328;52.054;5.294;2023-04-24T12:40:40;5.53;;;0.77;;
69985;SDS011;57328;52.054;5.294;2023-04-24T12:43:18;4.32;;;0.90;;
69985;SDS011;57328;52.054;5.294;2023-04-24T12:45:46;7.15;;;1.10;;
69985;SDS011;57328;52.054;5.294;2023-04-24T12:53:11;6.45;;;1.00;;
69985;SDS011;57328;52.054;5.294;2023-04-24T12:55:38;5.55;;;1.08;;
69985;SDS011;57328;52.054;5.294;2023-04-24T12:58:06;4.85;;;1.02;;
69985;SDS011;57328;52.054;5.294;2023-04-24T13:00:33;7.60;;;1.63;;
69985;SDS011;57328;52.054;5.294;2023-04-24T13:03:01;8.48;;;0.75;;
69985;SDS011;57328;52.054;5.294;2023-04-24T13:05:29;4.97;;;0.80;;
69985;SDS011;57328;52.054;5.294;2023-04-24T13:07:57;9.32;;;1.10;;
69985;SDS011;57328;52.054;5.294;2023-04-24T13:10:24;5.50;;;1.42;;
69985;SDS011;57328;52.054;5.294;2023-04-24T13:12:51;3.60;;;1.00;;
69985;SDS011;57328;52.054;5.294;2023-04-24T13:15:19;7.15;;;1.13;;
69985;SDS011;57328;52.054;5.294;2023-04-24T13:17:46;5.75;;;1.52;;
69985;SDS011;57328;52.054;5.294;2023-04-24T13:20:13;6.35;;;1.30;;
69985;SDS011;57328;52.054;5.294;2023-04-24T13:22:41;5.40;;;1.10;;
69985;SDS011;57328;52.054;5.294;2023-04-24T13:25:08;6.30;;;1.20;;
69985;SDS011;57328;52.054;5.294;2023-04-24T13:27:38;8.63;;;1.40;;
69985;SDS011;57328;52.054;5.294;2023-04-24T13:30:06;4.93;;;1.40;;
69985;SDS011;57328;52.054;5.294;2023-04-24T13:32:33;12.13;;;1.75;;
69985;SDS011;57328;52.054;5.294;2023-04-24T13:35:01;16.23;;;2.22;;
69985;SDS011;57328;52.054;5.294;2023-04-24T13:37:28;3.47;;;1.05;;
69985;SDS011;57328;52.054;5.294;2023-04-24T13:39:56;6.38;;;1.25;;
69985;SDS011;57328;52.054;5.294;2023-04-24T13:42:23;6.40;;;1.30;;
69985;SDS011;57328;52.054;5.294;2023-04-24T13:44:50;7.38;;;1.45;;
69985;SDS011;57328;52.054;5.294;2023-04-24T13:47:20;11.27;;;1.75;;
69985;SDS011;57328;52.054;5.294;2023-04-24T13:49:47;5.88;;;1.58;;
69985;SDS011;57328;52.054;5.294;2023-04-24T13:52:14;6.28;;;1.33;;
69985;SDS011;57328;52.054;5.294;2023-04-24T13:54:41;8.48;;;1.58;;
69985;SDS011;57328;52.054;5.294;2023-04-24T13:57:09;7.15;;;1.38;;
69985;SDS011;57328;52.054;5.294;2023-04-24T13:59:36;7.53;;;1.52;;
69985;SDS011;57328;52.054;5.294;2023-04-24T14:02:03;3.42;;;1.10;;
69985;SDS011;57328;52.054;5.294;2023-04-24T14:04:31;4.65;;;1.10;;
69985;SDS011;57328;52.054;5.294;2023-04-24T14:06:58;5.43;;;1.10;;
69985;SDS011;57328;52.054;5.294;2023-04-24T14:09:26;5.60;;;1.30;;
69985;SDS011;57328;52.054;5.294;2023-04-24T14:11:53;7.88;;;1.60;;
69985;SDS011;57328;52.054;5.294;2023-04-24T14:14:22;8.50;;;1.60;;
69985;SDS011;57328;52.054;5.294;2023-04-24T14:16:49;6.57;;;1.40;;
69985;SDS011;57328;52.054;5.294;2023-04-24T14:19:17;9.35;;;1.73;;
69985;SDS011;57328;52.054;5.294;2023-04-24T14:21:44;8.40;;;1.95;;
69985;SDS011;57328;52.054;5.294;2023-04-24T14:24:11;14.02;;;2.20;;
69985;SDS011;57328;52.054;5.294;2023-04-24T14:26:39;6.30;;;1.35;;
69985;SDS011;57328;52.054;5.294;2023-04-24T14:29:06;3.95;;;1.65;;
69985;SDS011;57328;52.054;5.294;2023-04-24T14:31:40;6.60;;;1.88;;
69985;SDS011;57328;52.054;5.294;2023-04-24T14:34:07;15.45;;;1.90;;
69985;SDS011;57328;52.054;5.294;2023-04-24T14:36:34;7.43;;;1.48;;
69985;SDS011;57328;52.054;5.294;2023-04-24T14:39:02;6.50;;;1.90;;
69985;SDS011;57328;52.054;5.294;2023-04-24T14:41:33;12.15;;;2.40;;
69985;SDS011;57328;52.054;5.294;2023-04-24T14:46:29;4.10;;;1.10;;
69985;SDS011;57328;52.054;5.294;2023-04-24T14:48:57;6.03;;;1.23;;
69985;SDS011;57328;52.054;5.294;2023-04-24T14:51:24;7.90;;;1.50;;
69985;SDS011;57328;52.054;5.294;2023-04-24T14:53:51;6.05;;;1.55;;
69985;SDS011;57328;52.054;5.294;2023-04-24T14:56:19;6.55;;;1.45;;
69985;SDS011;57328;52.054;5.294;2023-04-24T14:58:46;10.20;;;2.20;;
69985;SDS011;57328;52.054;5.294;2023-04-24T15:01:13;10.88;;;1.67;;
69985;SDS011;57328;52.054;5.294;2023-04-24T15:03:43;8.00;;;1.80;;
69985;SDS011;57328;52.054;5.294;2023-04-24T15:06:11;8.10;;;2.05;;
69985;SDS011;57328;52.054;5.294;2023-04-24T15:08:38;7.75;;;2.15;;
69985;SDS011;57328;52.054;5.294;2023-04-24T15:11:06;12.30;;;2.15;;
69985;SDS011;57328;52.054;5.294;2023-04-24T15:13:34;9.73;;;2.30;;
69985;SDS011;57328;52.054;5.294;2023-04-24T15:16:01;5.70;;;1.73;;
69985;SDS011;57328;52.054;5.294;2023-04-24T15:18:30;9.15;;;2.08;;
69985;SDS011;57328;52.054;5.294;2023-04-24T15:20:57;12.77;;;2.45;;
69985;SDS011;57328;52.054;5.294;2023-04-24T15:23:24;7.60;;;2.03;;
69985;SDS011;57328;52.054;5.294;2023-04-24T15:25:51;7.60;;;1.55;;
69985;SDS011;57328;52.054;5.294;2023-04-24T15:28:19;6.57;;;1.63;;
69985;SDS011;57328;52.054;5.294;2023-04-24T15:30:47;9.88;;;2.67;;
69985;SDS011;57328;52.054;5.294;2023-04-24T15:33:15;7.68;;;2.28;;
69985;SDS011;57328;52.054;5.294;2023-04-24T15:35:42;7.15;;;1.90;;
69985;SDS011;57328;52.054;5.294;2023-04-24T15:38:09;7.22;;;1.52;;
69985;SDS011;57328;52.054;5.294;2023-04-24T15:40:37;9.15;;;1.98;;